METAR Data
IDs: Format: Raw Decoded Include TAF

Data at: 0446 UTC 24 Sep 2020

KBWI 240354Z 25004KT 10SM BKN250 17/11 A2997 RMK AO2 SLP148 T01670111
KBWI 240254Z 25005KT 10SM BKN250 18/11 A2997 RMK AO2 SLP147 T01830111 50012
KBWI 240154Z 25004KT 10SM FEW160 BKN250 18/12 A2997 RMK AO2 SLP149 T01830117
KBWI 240054Z 24005KT 10SM SCT160 BKN250 21/12 A2996 RMK AO2 SLP144 T02110117
KBWI 232354Z 22004KT 10SM FEW160 BKN250 22/12 A2994 RMK AO2 SLP136 T02220122 10272 20222 53008
KBWI 232254Z COR 21005KT 10SM FEW160 BKN250 24/12 A2993 RMK AO2 SLP133 T02390122
KBWI 232154Z 25007KT 10SM SCT250 26/12 A2991 RMK AO2 SLP129 T02610117
KBWI 232054Z 24012KT 10SM FEW250 27/12 A2991 RMK AO2 SLP128 T02670117 56016
KBWI 231954Z 27010G17KT 10SM FEW250 27/11 A2992 RMK AO2 SLP131 T02670111
KBWI 231854Z 28011G16KT 10SM CLR 27/11 A2993 RMK AO2 SLP136 T02670111
KBWI 231754Z 26010KT 10SM CLR 26/11 A2996 RMK AO2 SLP144 T02610106 10261 20139 58019
KBWI 231654Z 30012KT 10SM CLR 25/11 A2999 RMK AO2 SLP154 T02500106
KBWI 231554Z 26008KT 10SM CLR 24/10 A3001 RMK AO2 SLP160 T02390100
KBWI 231454Z 29008KT 10SM CLR 22/09 A3001 RMK AO2 SLP162 T02220089 52002
KBWI 231354Z 28008KT 10SM CLR 21/09 A3001 RMK AO2 SLP162 T02060094
KBWI 231254Z 28010KT 10SM CLR 17/08 A3001 RMK AO2 SLP161 T01720083
KBWI 231154Z 26006KT 10SM CLR 14/08 A3001 RMK AO2 SLP160 T01390078 10139 20106 51006
KBWI 231054Z 27005KT 10SM FEW250 11/07 A3000 RMK AO2 SLP159 T01060067
KBWI 230954Z 27006KT 10SM FEW250 11/07 A3000 RMK AO2 SLP157 T01110067
KBWI 230854Z 27007KT 10SM FEW250 12/07 A2999 RMK AO2 SLP154 T01170067 55000
KBWI 230754Z 26006KT 10SM SCT250 12/07 A2999 RMK AO2 SLP154 T01170067
KBWI 230654Z 25003KT 10SM SCT250 12/07 A2999 RMK AO2 SLP153 T01220072
KBWI 230554Z 26005KT 10SM SCT250 12/07 A2999 RMK AO2 SLP154 T01220072 10167 20117 50001
KBWI 230454Z 26005KT 10SM SCT250 12/07 A2999 RMK AO2 SLP155 T01220067 402280044
KBWI 230354Z 27006KT 10SM SCT250 14/07 A2999 RMK AO2 SLP154 T01390067
KBWI 230254Z 26008KT 10SM FEW250 13/07 A2999 RMK AO2 SLP154 T01330067 58005
KBWI 230154Z 26005KT 10SM FEW250 13/07 A2999 RMK AO2 SLP155 T01330067
KBWI 230054Z 25004KT 10SM FEW250 13/07 A3000 RMK AO2 SLP158 T01330072
KBWI 222354Z 26004KT 10SM FEW250 16/07 A3000 RMK AO2 SLP158 T01560067 10228 20156 56006
KBWI 222254Z 26006KT 10SM FEW250 18/06 A3000 RMK AO2 SLP160 T01780056
KBWI 222154Z 28009KT 10SM FEW250 21/06 A3001 RMK AO2 SLP161 T02060056
KBWI 222054Z 27012KT 10SM FEW250 22/05 A3002 RMK AO2 SLP165 T02220050 56028
KBWI 221954Z 27011KT 10SM FEW250 23/04 A3003 RMK AO2 SLP169 T02280044
KBWI 221854Z 27009G15KT 10SM FEW250 23/04 A3006 RMK AO2 SLP180 T02280044
KBWI 221754Z 29011G17KT 10SM FEW250 22/04 A3010 RMK AO2 SLP193 T02220039 10228 20078 58043
KBWI 221654Z 32008KT 10SM CLR 21/04 A3016 RMK AO2 SLP214 T02110039